createdAt,value
2017-04-24T00:09:33.362Z,5
2017-04-24T00:19:33.374Z,5
2017-04-24T00:29:33.353Z,7
2017-04-24T00:39:33.343Z,9
2017-04-24T00:49:33.434Z,5
2017-04-24T00:59:33.407Z,5
2017-04-24T01:09:33.448Z,5
2017-04-24T01:19:33.396Z,6
2017-04-24T01:29:33.378Z,6
2017-04-24T01:39:33.473Z,9
2017-04-24T01:49:33.410Z,7
2017-04-24T01:59:33.453Z,8
2017-04-24T02:09:33.499Z,7
2017-04-24T02:19:33.490Z,10
2017-04-24T02:29:33.436Z,7
2017-04-24T02:39:33.520Z,6
2017-04-24T02:49:33.473Z,8
2017-04-24T02:59:33.584Z,8
2017-04-24T03:09:33.463Z,14
2017-04-24T03:19:33.573Z,15
2017-04-24T03:29:33.450Z,16
2017-04-24T03:39:33.460Z,14
2017-04-24T03:49:33.557Z,22
2017-04-24T03:59:33.516Z,21
2017-04-24T04:09:33.502Z,21
2017-04-24T04:19:33.509Z,19
2017-04-24T04:29:33.830Z,19
2017-04-24T04:39:33.586Z,19
2017-04-24T04:49:33.511Z,21
2017-04-24T04:59:33.545Z,17
2017-04-24T05:09:33.646Z,21
2017-04-24T05:19:33.520Z,17
2017-04-24T05:29:33.551Z,20
2017-04-24T05:39:33.664Z,20
2017-04-24T05:49:33.623Z,18
2017-04-24T05:59:45.597Z,18
2017-04-24T06:09:33.595Z,17
2017-04-24T06:19:33.674Z,21
2017-04-24T06:29:33.639Z,20
2017-04-24T06:39:33.628Z,15
2017-04-24T06:49:33.658Z,16
2017-04-24T06:59:33.728Z,13
2017-04-24T07:09:33.735Z,14
2017-04-24T07:19:33.782Z,13
2017-04-24T07:29:33.690Z,12
2017-04-24T07:39:33.725Z,12
2017-04-24T07:49:33.721Z,14
2017-04-24T07:59:33.690Z,9
2017-04-24T08:09:33.760Z,10
2017-04-24T08:19:33.776Z,13
2017-04-24T08:29:33.723Z,9
2017-04-24T08:39:34.254Z,9
2017-04-24T08:49:33.835Z,9
2017-04-24T08:59:33.782Z,8
2017-04-24T09:09:33.842Z,14
2017-04-24T09:19:33.839Z,8
2017-04-24T09:29:33.918Z,8
2017-04-24T09:39:33.813Z,8
2017-04-24T09:49:33.806Z,9
2017-04-24T09:59:33.816Z,9
2017-04-24T10:09:33.836Z,14
2017-04-24T10:19:34.172Z,9
2017-04-24T10:29:33.902Z,15
2017-04-24T10:39:33.840Z,10
2017-04-24T10:49:33.947Z,11
2017-04-24T10:59:33.957Z,10
2017-04-24T11:09:33.955Z,10
2017-04-24T11:19:33.848Z,10
2017-04-24T11:29:34.021Z,10
2017-04-24T11:39:33.836Z,10
2017-04-24T11:49:33.936Z,10
2017-04-24T11:59:33.915Z,10
2017-04-24T12:09:33.874Z,10
2017-04-24T12:19:33.929Z,9
2017-04-24T12:29:33.865Z,10
2017-04-24T12:39:34.170Z,8
2017-04-24T12:49:40.780Z,10
2017-04-24T13:00:31.127Z,11
2017-04-24T13:09:40.694Z,9
2017-04-24T13:19:42.523Z,9
2017-04-24T13:29:42.777Z,10
2017-04-24T13:39:42.079Z,9
2017-04-24T13:49:40.918Z,11
2017-04-24T13:59:40.296Z,12
2017-04-24T14:09:33.826Z,14
2017-04-24T14:19:33.935Z,14
2017-04-24T14:29:33.955Z,14
2017-04-24T14:39:34.987Z,14
2017-04-24T14:49:34.012Z,13
2017-04-24T14:59:33.916Z,13
2017-04-24T15:09:33.787Z,13
2017-04-24T15:19:33.884Z,13
2017-04-24T15:29:33.844Z,14
2017-04-24T15:39:33.945Z,13
2017-04-24T15:49:33.838Z,12
2017-04-24T15:59:33.847Z,11
2017-04-24T16:09:33.901Z,9
2017-04-24T16:19:33.854Z,11
2017-04-24T16:29:33.929Z,11
2017-04-24T16:39:33.855Z,10
2017-04-24T16:49:33.942Z,12
2017-04-24T16:59:33.912Z,12
2017-04-24T17:09:33.920Z,12
2017-04-24T17:19:33.941Z,12
2017-04-24T17:29:33.837Z,12
2017-04-24T17:39:33.868Z,11
2017-04-24T17:49:33.928Z,16
2017-04-24T17:59:33.890Z,12
2017-04-24T18:09:33.915Z,12
2017-04-24T18:19:33.879Z,16
2017-04-24T18:29:33.863Z,15
2017-04-24T18:39:33.848Z,12
2017-04-24T18:49:33.934Z,13
2017-04-24T18:59:33.872Z,11
2017-04-24T19:09:33.834Z,11
2017-04-24T19:19:33.935Z,13
2017-04-24T19:29:33.850Z,16
2017-04-24T19:39:33.948Z,18
2017-04-24T19:49:33.834Z,12
2017-04-24T19:59:33.901Z,14
2017-04-24T20:09:33.863Z,14
2017-04-24T20:19:33.844Z,15
2017-04-24T20:29:33.892Z,15
2017-04-24T20:39:33.899Z,13
2017-04-24T20:49:34.014Z,12
2017-04-24T20:59:33.966Z,12
2017-04-24T21:09:33.889Z,14
2017-04-24T21:19:33.923Z,15
2017-04-24T21:29:33.940Z,15
2017-04-24T21:39:33.829Z,17
2017-04-24T21:49:34.037Z,19
2017-04-24T21:59:34.117Z,18
2017-04-24T22:09:34.569Z,18
2017-04-24T22:19:33.799Z,15
2017-04-24T22:29:34.149Z,18
2017-04-24T22:39:33.867Z,20
2017-04-24T22:49:34.830Z,15
2017-04-24T22:59:33.829Z,19
2017-04-24T23:09:33.867Z,17
2017-04-24T23:19:33.793Z,18
2017-04-24T23:29:33.851Z,16
2017-04-24T23:39:33.850Z,4
2017-04-24T23:49:33.937Z,5
2017-04-24T23:59:33.940Z,3
